sensor_id;sensor_type;location;lat;lon;timestamp;P1;durP1;ratioP1;P2;durP2;ratioP2
65393;SDS011;52002;49.760;6.512;2023-05-19T00:01:56;5.70;;;2.10;;
65393;SDS011;52002;49.760;6.512;2023-05-19T00:04:24;5.60;;;2.30;;
65393;SDS011;52002;49.760;6.512;2023-05-19T00:06:51;5.70;;;1.90;;
65393;SDS011;52002;49.760;6.512;2023-05-19T00:09:18;5.20;;;1.80;;
65393;SDS011;52002;49.760;6.512;2023-05-19T00:11:44;5.10;;;2.00;;
65393;SDS011;52002;49.760;6.512;2023-05-19T00:14:10;4.40;;;2.00;;
65393;SDS011;52002;49.760;6.512;2023-05-19T00:16:36;6.40;;;2.10;;
65393;SDS011;52002;49.760;6.512;2023-05-19T00:19:02;4.60;;;1.90;;
65393;SDS011;52002;49.760;6.512;2023-05-19T00:21:29;5.00;;;2.20;;
65393;SDS011;52002;49.760;6.512;2023-05-19T00:23:55;8.20;;;2.10;;
65393;SDS011;52002;49.760;6.512;2023-05-19T00:26:21;6.60;;;1.70;;
65393;SDS011;52002;49.760;6.512;2023-05-19T00:28:51;5.90;;;2.30;;
65393;SDS011;52002;49.760;6.512;2023-05-19T00:31:17;2.80;;;1.90;;
65393;SDS011;52002;49.760;6.512;2023-05-19T00:33:42;11.50;;;4.50;;
65393;SDS011;52002;49.760;6.512;2023-05-19T00:36:08;5.30;;;3.50;;
65393;SDS011;52002;49.760;6.512;2023-05-19T00:38:34;4.70;;;2.00;;
65393;SDS011;52002;49.760;6.512;2023-05-19T00:41:01;6.40;;;2.20;;
65393;SDS011;52002;49.760;6.512;2023-05-19T00:43:28;8.40;;;2.10;;
65393;SDS011;52002;49.760;6.512;2023-05-19T00:45:58;4.60;;;1.90;;
65393;SDS011;52002;49.760;6.512;2023-05-19T00:48:24;9.00;;;1.90;;
65393;SDS011;52002;49.760;6.512;2023-05-19T00:50:50;5.30;;;1.80;;
65393;SDS011;52002;49.760;6.512;2023-05-19T00:53:28;5.00;;;2.10;;
65393;SDS011;52002;49.760;6.512;2023-05-19T00:55:54;11.10;;;2.10;;
65393;SDS011;52002;49.760;6.512;2023-05-19T00:58:19;7.20;;;2.10;;
65393;SDS011;52002;49.760;6.512;2023-05-19T01:00:45;7.70;;;1.90;;
65393;SDS011;52002;49.760;6.512;2023-05-19T01:03:10;11.10;;;2.40;;
65393;SDS011;52002;49.760;6.512;2023-05-19T01:05:44;8.90;;;2.50;;
65393;SDS011;52002;49.760;6.512;2023-05-19T01:08:11;9.30;;;2.50;;
65393;SDS011;52002;49.760;6.512;2023-05-19T01:10:37;5.40;;;2.40;;
65393;SDS011;52002;49.760;6.512;2023-05-19T01:13:02;7.80;;;2.20;;
65393;SDS011;52002;49.760;6.512;2023-05-19T01:15:29;4.70;;;2.30;;
65393;SDS011;52002;49.760;6.512;2023-05-19T01:18:18;6.20;;;2.40;;
65393;SDS011;52002;49.760;6.512;2023-05-19T01:27:06;4.40;;;1.90;;
65393;SDS011;52002;49.760;6.512;2023-05-19T01:32:02;5.70;;;1.80;;
65393;SDS011;52002;49.760;6.512;2023-05-19T01:34:30;5.70;;;2.60;;
65393;SDS011;52002;49.760;6.512;2023-05-19T01:36:57;6.20;;;2.10;;
65393;SDS011;52002;49.760;6.512;2023-05-19T01:39:25;6.70;;;2.20;;
65393;SDS011;52002;49.760;6.512;2023-05-19T01:41:52;8.60;;;2.30;;
65393;SDS011;52002;49.760;6.512;2023-05-19T01:44:18;4.70;;;1.90;;
65393;SDS011;52002;49.760;6.512;2023-05-19T01:46:46;5.70;;;1.90;;
65393;SDS011;52002;49.760;6.512;2023-05-19T01:49:13;10.00;;;2.20;;
65393;SDS011;52002;49.760;6.512;2023-05-19T01:51:39;6.00;;;2.10;;
65393;SDS011;52002;49.760;6.512;2023-05-19T01:54:04;11.50;;;2.10;;
65393;SDS011;52002;49.760;6.512;2023-05-19T01:56:39;10.00;;;2.00;;
65393;SDS011;52002;49.760;6.512;2023-05-19T01:59:55;5.40;;;2.00;;
65393;SDS011;52002;49.760;6.512;2023-05-19T02:02:21;5.30;;;2.80;;
65393;SDS011;52002;49.760;6.512;2023-05-19T02:04:56;4.60;;;1.90;;
65393;SDS011;52002;49.760;6.512;2023-05-19T02:07:56;9.30;;;1.90;;
65393;SDS011;52002;49.760;6.512;2023-05-19T02:10:28;9.80;;;1.60;;
65393;SDS011;52002;49.760;6.512;2023-05-19T02:12:55;6.90;;;2.00;;
65393;SDS011;52002;49.760;6.512;2023-05-19T02:15:25;3.60;;;1.50;;
65393;SDS011;52002;49.760;6.512;2023-05-19T02:17:56;7.30;;;2.00;;
65393;SDS011;52002;49.760;6.512;2023-05-19T02:20:24;4.30;;;1.90;;
65393;SDS011;52002;49.760;6.512;2023-05-19T02:22:49;4.70;;;2.10;;
65393;SDS011;52002;49.760;6.512;2023-05-19T02:25:15;7.20;;;1.60;;
65393;SDS011;52002;49.760;6.512;2023-05-19T02:27:40;9.30;;;2.20;;
65393;SDS011;52002;49.760;6.512;2023-05-19T02:30:06;5.80;;;2.00;;
65393;SDS011;52002;49.760;6.512;2023-05-19T02:32:33;6.10;;;1.90;;
65393;SDS011;52002;49.760;6.512;2023-05-19T02:35:00;8.20;;;2.00;;
65393;SDS011;52002;49.760;6.512;2023-05-19T02:37:26;3.40;;;1.80;;
65393;SDS011;52002;49.760;6.512;2023-05-19T02:39:56;4.70;;;2.00;;
65393;SDS011;52002;49.760;6.512;2023-05-19T02:42:22;5.60;;;2.20;;
65393;SDS011;52002;49.760;6.512;2023-05-19T02:44:48;7.00;;;1.60;;
65393;SDS011;52002;49.760;6.512;2023-05-19T02:47:13;5.20;;;1.80;;
65393;SDS011;52002;49.760;6.512;2023-05-19T02:49:39;3.80;;;1.80;;
65393;SDS011;52002;49.760;6.512;2023-05-19T02:52:05;7.10;;;2.50;;
65393;SDS011;52002;49.760;6.512;2023-05-19T02:54:31;5.60;;;2.00;;
65393;SDS011;52002;49.760;6.512;2023-05-19T02:56:58;5.80;;;1.90;;
65393;SDS011;52002;49.760;6.512;2023-05-19T02:59:23;6.10;;;2.20;;
65393;SDS011;52002;49.760;6.512;2023-05-19T03:01:50;6.40;;;1.80;;
65393;SDS011;52002;49.760;6.512;2023-05-19T03:04:17;4.60;;;1.50;;
65393;SDS011;52002;49.760;6.512;2023-05-19T03:06:44;7.60;;;1.80;;
65393;SDS011;52002;49.760;6.512;2023-05-19T03:09:11;4.50;;;1.90;;
65393;SDS011;52002;49.760;6.512;2023-05-19T03:11:37;4.30;;;1.90;;
65393;SDS011;52002;49.760;6.512;2023-05-19T03:14:03;7.80;;;2.30;;
65393;SDS011;52002;49.760;6.512;2023-05-19T03:16:28;5.70;;;1.80;;
65393;SDS011;52002;49.760;6.512;2023-05-19T03:18:54;4.30;;;1.80;;
65393;SDS011;52002;49.760;6.512;2023-05-19T03:21:19;4.50;;;1.80;;
65393;SDS011;52002;49.760;6.512;2023-05-19T03:23:45;2.50;;;1.40;;
65393;SDS011;52002;49.760;6.512;2023-05-19T03:26:11;4.30;;;1.80;;
65393;SDS011;52002;49.760;6.512;2023-05-19T03:28:36;7.40;;;1.60;;
65393;SDS011;52002;49.760;6.512;2023-05-19T03:31:02;6.60;;;2.30;;
65393;SDS011;52002;49.760;6.512;2023-05-19T03:33:27;5.00;;;1.70;;
65393;SDS011;52002;49.760;6.512;2023-05-19T03:35:55;4.80;;;2.10;;
65393;SDS011;52002;49.760;6.512;2023-05-19T03:38:21;4.10;;;2.00;;
65393;SDS011;52002;49.760;6.512;2023-05-19T03:40:46;4.40;;;2.30;;
65393;SDS011;52002;49.760;6.512;2023-05-19T03:43:11;5.00;;;1.70;;
65393;SDS011;52002;49.760;6.512;2023-05-19T03:45:37;4.80;;;2.00;;
65393;SDS011;52002;49.760;6.512;2023-05-19T03:48:02;4.60;;;2.00;;
65393;SDS011;52002;49.760;6.512;2023-05-19T03:50:28;3.40;;;1.70;;
65393;SDS011;52002;49.760;6.512;2023-05-19T03:52:55;5.30;;;1.60;;
65393;SDS011;52002;49.760;6.512;2023-05-19T03:55:21;8.20;;;1.40;;
65393;SDS011;52002;49.760;6.512;2023-05-19T03:57:46;2.90;;;1.20;;
65393;SDS011;52002;49.760;6.512;2023-05-19T04:00:12;4.90;;;1.80;;
65393;SDS011;52002;49.760;6.512;2023-05-19T04:02:38;5.90;;;1.80;;
65393;SDS011;52002;49.760;6.512;2023-05-19T04:05:05;5.00;;;1.70;;
65393;SDS011;52002;49.760;6.512;2023-05-19T04:07:32;3.30;;;1.70;;
65393;SDS011;52002;49.760;6.512;2023-05-19T04:09:58;5.50;;;1.80;;
65393;SDS011;52002;49.760;6.512;2023-05-19T04:12:23;3.90;;;1.70;;
65393;SDS011;52002;49.760;6.512;2023-05-19T04:14:48;4.20;;;1.50;;
65393;SDS011;52002;49.760;6.512;2023-05-19T04:17:14;11.30;;;2.10;;
65393;SDS011;52002;49.760;6.512;2023-05-19T04:19:39;6.50;;;2.20;;
65393;SDS011;52002;49.760;6.512;2023-05-19T04:22:05;8.10;;;1.90;;
65393;SDS011;52002;49.760;6.512;2023-05-19T04:24:30;3.80;;;1.60;;
65393;SDS011;52002;49.760;6.512;2023-05-19T04:26:56;6.70;;;1.60;;
65393;SDS011;52002;49.760;6.512;2023-05-19T04:29:26;1.30;;;1.20;;
65393;SDS011;52002;49.760;6.512;2023-05-19T04:31:54;4.70;;;1.50;;
65393;SDS011;52002;49.760;6.512;2023-05-19T04:34:21;5.10;;;1.60;;
65393;SDS011;52002;49.760;6.512;2023-05-19T04:36:46;3.30;;;1.40;;
65393;SDS011;52002;49.760;6.512;2023-05-19T04:39:13;7.10;;;1.70;;
65393;SDS011;52002;49.760;6.512;2023-05-19T04:41:38;3.80;;;2.00;;
65393;SDS011;52002;49.760;6.512;2023-05-19T04:44:08;8.00;;;1.80;;
65393;SDS011;52002;49.760;6.512;2023-05-19T04:46:34;5.50;;;2.10;;
65393;SDS011;52002;49.760;6.512;2023-05-19T04:49:00;4.90;;;1.80;;
65393;SDS011;52002;49.760;6.512;2023-05-19T04:51:26;4.70;;;1.80;;
65393;SDS011;52002;49.760;6.512;2023-05-19T04:53:55;6.20;;;1.70;;
65393;SDS011;52002;49.760;6.512;2023-05-19T04:56:21;4.40;;;1.50;;
65393;SDS011;52002;49.760;6.512;2023-05-19T04:58:47;3.30;;;1.70;;
65393;SDS011;52002;49.760;6.512;2023-05-19T05:01:13;3.80;;;1.40;;
65393;SDS011;52002;49.760;6.512;2023-05-19T05:03:40;2.90;;;1.80;;
65393;SDS011;52002;49.760;6.512;2023-05-19T05:06:06;4.10;;;1.20;;
65393;SDS011;52002;49.760;6.512;2023-05-19T05:08:31;5.40;;;1.40;;
65393;SDS011;52002;49.760;6.512;2023-05-19T05:10:57;2.80;;;1.30;;
65393;SDS011;52002;49.760;6.512;2023-05-19T05:13:23;6.60;;;1.70;;
65393;SDS011;52002;49.760;6.512;2023-05-19T05:15:49;3.20;;;1.40;;
65393;SDS011;52002;49.760;6.512;2023-05-19T05:18:18;4.20;;;1.70;;
65393;SDS011;52002;49.760;6.512;2023-05-19T05:20:44;4.30;;;1.50;;
65393;SDS011;52002;49.760;6.512;2023-05-19T05:23:11;4.30;;;1.90;;
65393;SDS011;52002;49.760;6.512;2023-05-19T05:25:42;6.60;;;1.70;;
65393;SDS011;52002;49.760;6.512;2023-05-19T05:28:08;6.20;;;1.70;;
65393;SDS011;52002;49.760;6.512;2023-05-19T05:30:34;7.00;;;1.60;;
65393;SDS011;52002;49.760;6.512;2023-05-19T05:33:00;3.80;;;1.70;;
65393;SDS011;52002;49.760;6.512;2023-05-19T05:35:26;8.60;;;2.60;;
65393;SDS011;52002;49.760;6.512;2023-05-19T05:37:51;6.00;;;1.90;;
65393;SDS011;52002;49.760;6.512;2023-05-19T05:40:17;5.50;;;2.00;;
65393;SDS011;52002;49.760;6.512;2023-05-19T05:42:43;4.40;;;2.00;;
65393;SDS011;52002;49.760;6.512;2023-05-19T05:45:08;5.40;;;1.60;;
65393;SDS011;52002;49.760;6.512;2023-05-19T05:47:34;4.70;;;1.60;;
65393;SDS011;52002;49.760;6.512;2023-05-19T05:50:04;4.90;;;2.00;;
65393;SDS011;52002;49.760;6.512;2023-05-19T05:52:30;6.70;;;2.10;;
65393;SDS011;52002;49.760;6.512;2023-05-19T05:54:58;3.00;;;1.60;;
65393;SDS011;52002;49.760;6.512;2023-05-19T05:57:23;4.90;;;2.00;;
65393;SDS011;52002;49.760;6.512;2023-05-19T05:59:49;3.60;;;2.00;;
65393;SDS011;52002;49.760;6.512;2023-05-19T06:02:15;3.40;;;2.00;;
65393;SDS011;52002;49.760;6.512;2023-05-19T06:04:41;5.20;;;2.60;;
65393;SDS011;52002;49.760;6.512;2023-05-19T06:07:08;3.40;;;2.30;;
65393;SDS011;52002;49.760;6.512;2023-05-19T06:09:33;4.50;;;2.20;;
65393;SDS011;52002;49.760;6.512;2023-05-19T06:11:58;4.60;;;2.50;;
65393;SDS011;52002;49.760;6.512;2023-05-19T06:14:24;4.10;;;2.10;;
65393;SDS011;52002;49.760;6.512;2023-05-19T06:16:49;7.00;;;2.30;;
65393;SDS011;52002;49.760;6.512;2023-05-19T06:19:15;3.50;;;2.20;;
65393;SDS011;52002;49.760;6.512;2023-05-19T06:21:40;5.00;;;2.60;;
65393;SDS011;52002;49.760;6.512;2023-05-19T06:24:07;7.00;;;2.60;;
65393;SDS011;52002;49.760;6.512;2023-05-19T06:26:32;3.30;;;2.50;;
65393;SDS011;52002;49.760;6.512;2023-05-19T06:28:58;4.30;;;2.50;;
65393;SDS011;52002;49.760;6.512;2023-05-19T06:31:23;5.10;;;3.20;;
65393;SDS011;52002;49.760;6.512;2023-05-19T06:33:50;6.80;;;3.10;;
65393;SDS011;52002;49.760;6.512;2023-05-19T06:36:16;4.40;;;2.80;;
65393;SDS011;52002;49.760;6.512;2023-05-19T06:38:41;6.00;;;2.90;;
65393;SDS011;52002;49.760;6.512;2023-05-19T06:41:06;6.20;;;2.80;;
65393;SDS011;52002;49.760;6.512;2023-05-19T06:43:32;5.90;;;2.80;;
65393;SDS011;52002;49.760;6.512;2023-05-19T06:45:57;5.20;;;2.90;;
65393;SDS011;52002;49.760;6.512;2023-05-19T06:48:22;5.60;;;2.70;;
65393;SDS011;52002;49.760;6.512;2023-05-19T06:50:48;5.20;;;2.90;;
65393;SDS011;52002;49.760;6.512;2023-05-19T06:53:15;5.80;;;2.80;;
65393;SDS011;52002;49.760;6.512;2023-05-19T06:55:43;7.50;;;3.10;;
65393;SDS011;52002;49.760;6.512;2023-05-19T06:58:08;4.60;;;2.80;;
65393;SDS011;52002;49.760;6.512;2023-05-19T07:00:33;4.40;;;3.20;;
65393;SDS011;52002;49.760;6.512;2023-05-19T07:02:59;4.70;;;2.90;;
65393;SDS011;52002;49.760;6.512;2023-05-19T07:05:24;7.40;;;3.40;;
65393;SDS011;52002;49.760;6.512;2023-05-19T07:07:50;6.30;;;3.40;;
65393;SDS011;52002;49.760;6.512;2023-05-19T07:10:15;4.80;;;3.30;;
65393;SDS011;52002;49.760;6.512;2023-05-19T07:12:40;4.30;;;3.20;;
65393;SDS011;52002;49.760;6.512;2023-05-19T07:15:06;5.80;;;3.60;;
65393;SDS011;52002;49.760;6.512;2023-05-19T07:17:31;6.20;;;3.80;;
65393;SDS011;52002;49.760;6.512;2023-05-19T07:19:57;4.10;;;3.20;;
65393;SDS011;52002;49.760;6.512;2023-05-19T07:22:22;6.50;;;3.60;;
65393;SDS011;52002;49.760;6.512;2023-05-19T07:24:48;5.00;;;3.40;;
65393;SDS011;52002;49.760;6.512;2023-05-19T07:27:14;5.30;;;3.30;;
65393;SDS011;52002;49.760;6.512;2023-05-19T07:29:39;8.50;;;3.70;;
65393;SDS011;52002;49.760;6.512;2023-05-19T07:32:04;4.90;;;3.40;;
65393;SDS011;52002;49.760;6.512;2023-05-19T07:34:30;4.70;;;3.60;;
65393;SDS011;52002;49.760;6.512;2023-05-19T07:36:56;5.90;;;3.70;;
65393;SDS011;52002;49.760;6.512;2023-05-19T07:39:21;8.20;;;3.70;;
65393;SDS011;52002;49.760;6.512;2023-05-19T07:41:49;6.20;;;3.40;;
65393;SDS011;52002;49.760;6.512;2023-05-19T07:46:43;6.40;;;3.40;;
65393;SDS011;52002;49.760;6.512;2023-05-19T07:49:08;5.70;;;3.30;;
65393;SDS011;52002;49.760;6.512;2023-05-19T07:51:34;4.50;;;3.30;;
65393;SDS011;52002;49.760;6.512;2023-05-19T07:53:59;5.70;;;3.40;;
65393;SDS011;52002;49.760;6.512;2023-05-19T07:56:25;6.70;;;3.00;;
65393;SDS011;52002;49.760;6.512;2023-05-19T07:58:51;10.40;;;3.00;;
65393;SDS011;52002;49.760;6.512;2023-05-19T08:01:16;5.40;;;3.00;;
65393;SDS011;52002;49.760;6.512;2023-05-19T08:03:42;6.70;;;2.90;;
65393;SDS011;52002;49.760;6.512;2023-05-19T08:06:07;8.70;;;3.10;;
65393;SDS011;52002;49.760;6.512;2023-05-19T08:08:33;4.20;;;2.60;;
65393;SDS011;52002;49.760;6.512;2023-05-19T08:11:03;7.20;;;2.70;;
65393;SDS011;52002;49.760;6.512;2023-05-19T08:13:29;4.70;;;2.60;;
65393;SDS011;52002;49.760;6.512;2023-05-19T08:15:55;4.80;;;2.70;;
65393;SDS011;52002;49.760;6.512;2023-05-19T08:18:24;7.40;;;2.90;;
65393;SDS011;52002;49.760;6.512;2023-05-19T08:20:49;10.20;;;2.70;;
65393;SDS011;52002;49.760;6.512;2023-05-19T08:23:15;5.90;;;2.40;;
65393;SDS011;52002;49.760;6.512;2023-05-19T08:25:41;6.20;;;2.70;;
65393;SDS011;52002;49.760;6.512;2023-05-19T08:28:07;5.00;;;2.50;;
65393;SDS011;52002;49.760;6.512;2023-05-19T08:30:32;4.60;;;2.50;;
65393;SDS011;52002;49.760;6.512;2023-05-19T08:32:58;4.00;;;2.40;;
65393;SDS011;52002;49.760;6.512;2023-05-19T08:35:23;3.80;;;2.50;;
65393;SDS011;52002;49.760;6.512;2023-05-19T08:37:48;2.90;;;2.10;;
65393;SDS011;52002;49.760;6.512;2023-05-19T08:40:17;8.20;;;2.30;;
65393;SDS011;52002;49.760;6.512;2023-05-19T08:42:44;3.00;;;1.90;;
65393;SDS011;52002;49.760;6.512;2023-05-19T08:45:10;7.20;;;2.30;;
65393;SDS011;52002;49.760;6.512;2023-05-19T08:47:35;6.40;;;1.90;;
65393;SDS011;52002;49.760;6.512;2023-05-19T08:50:04;8.50;;;2.20;;
65393;SDS011;52002;49.760;6.512;2023-05-19T08:57:30;8.50;;;2.10;;
65393;SDS011;52002;49.760;6.512;2023-05-19T08:59:56;6.30;;;2.00;;
65393;SDS011;52002;49.760;6.512;2023-05-19T09:02:23;8.80;;;1.70;;
65393;SDS011;52002;49.760;6.512;2023-05-19T09:04:48;6.20;;;2.00;;
65393;SDS011;52002;49.760;6.512;2023-05-19T09:07:15;5.70;;;1.90;;
65393;SDS011;52002;49.760;6.512;2023-05-19T09:09:43;6.80;;;1.50;;
65393;SDS011;52002;49.760;6.512;2023-05-19T09:12:12;8.60;;;2.00;;
65393;SDS011;52002;49.760;6.512;2023-05-19T09:14:38;4.90;;;1.60;;
65393;SDS011;52002;49.760;6.512;2023-05-19T09:17:04;10.00;;;1.40;;
65393;SDS011;52002;49.760;6.512;2023-05-19T09:19:31;34.80;;;2.50;;
65393;SDS011;52002;49.760;6.512;2023-05-19T09:21:56;8.10;;;1.70;;
65393;SDS011;52002;49.760;6.512;2023-05-19T09:24:27;8.80;;;1.70;;
65393;SDS011;52002;49.760;6.512;2023-05-19T09:26:54;14.40;;;2.40;;
65393;SDS011;52002;49.760;6.512;2023-05-19T09:29:23;5.00;;;1.50;;
65393;SDS011;52002;49.760;6.512;2023-05-19T09:31:53;7.60;;;2.00;;
65393;SDS011;52002;49.760;6.512;2023-05-19T09:34:24;4.50;;;1.60;;
65393;SDS011;52002;49.760;6.512;2023-05-19T09:36:51;6.70;;;1.90;;
65393;SDS011;52002;49.760;6.512;2023-05-19T09:39:18;5.40;;;1.70;;
65393;SDS011;52002;49.760;6.512;2023-05-19T09:41:45;4.40;;;1.50;;
65393;SDS011;52002;49.760;6.512;2023-05-19T09:44:12;8.40;;;1.90;;
65393;SDS011;52002;49.760;6.512;2023-05-19T09:46:48;8.80;;;1.90;;
65393;SDS011;52002;49.760;6.512;2023-05-19T09:49:21;11.50;;;1.80;;
65393;SDS011;52002;49.760;6.512;2023-05-19T09:51:48;6.90;;;1.70;;
65393;SDS011;52002;49.760;6.512;2023-05-19T09:54:15;5.20;;;1.70;;
65393;SDS011;52002;49.760;6.512;2023-05-19T09:56:40;5.20;;;2.00;;
65393;SDS011;52002;49.760;6.512;2023-05-19T09:59:06;5.80;;;1.80;;
65393;SDS011;52002;49.760;6.512;2023-05-19T10:01:32;6.60;;;1.70;;
65393;SDS011;52002;49.760;6.512;2023-05-19T10:03:57;5.40;;;1.60;;
65393;SDS011;52002;49.760;6.512;2023-05-19T10:06:25;5.60;;;1.70;;
65393;SDS011;52002;49.760;6.512;2023-05-19T10:08:50;3.90;;;1.50;;
65393;SDS011;52002;49.760;6.512;2023-05-19T10:11:16;9.20;;;1.80;;
65393;SDS011;52002;49.760;6.512;2023-05-19T10:13:43;7.40;;;1.80;;
65393;SDS011;52002;49.760;6.512;2023-05-19T10:16:10;4.80;;;1.50;;
65393;SDS011;52002;49.760;6.512;2023-05-19T10:18:36;5.40;;;1.50;;
65393;SDS011;52002;49.760;6.512;2023-05-19T10:21:02;6.30;;;1.50;;
65393;SDS011;52002;49.760;6.512;2023-05-19T10:23:28;5.70;;;1.70;;
65393;SDS011;52002;49.760;6.512;2023-05-19T10:25:55;8.60;;;1.80;;
65393;SDS011;52002;49.760;6.512;2023-05-19T10:28:24;6.60;;;1.50;;
65393;SDS011;52002;49.760;6.512;2023-05-19T10:30:57;4.10;;;1.70;;
65393;SDS011;52002;49.760;6.512;2023-05-19T10:33:32;6.20;;;1.70;;
65393;SDS011;52002;49.760;6.512;2023-05-19T10:36:14;8.60;;;1.70;;
65393;SDS011;52002;49.760;6.512;2023-05-19T10:39:24;4.40;;;1.70;;
65393;SDS011;52002;49.760;6.512;2023-05-19T10:47:22;2.80;;;1.30;;
65393;SDS011;52002;49.760;6.512;2023-05-19T10:49:50;5.80;;;1.70;;
65393;SDS011;52002;49.760;6.512;2023-05-19T10:52:18;5.90;;;2.00;;
65393;SDS011;52002;49.760;6.512;2023-05-19T10:54:49;4.00;;;1.30;;
65393;SDS011;52002;49.760;6.512;2023-05-19T10:57:18;5.20;;;1.40;;
65393;SDS011;52002;49.760;6.512;2023-05-19T10:59:49;3.60;;;1.40;;
65393;SDS011;52002;49.760;6.512;2023-05-19T11:05:06;4.50;;;2.00;;
65393;SDS011;52002;49.760;6.512;2023-05-19T11:07:33;10.40;;;1.50;;
65393;SDS011;52002;49.760;6.512;2023-05-19T11:09:59;9.70;;;2.10;;
65393;SDS011;52002;49.760;6.512;2023-05-19T11:12:30;3.50;;;1.50;;
65393;SDS011;52002;49.760;6.512;2023-05-19T11:15:06;8.70;;;2.10;;
65393;SDS011;52002;49.760;6.512;2023-05-19T11:17:34;7.20;;;1.70;;
65393;SDS011;52002;49.760;6.512;2023-05-19T11:20:00;8.30;;;1.50;;
65393;SDS011;52002;49.760;6.512;2023-05-19T11:22:26;6.00;;;1.70;;
65393;SDS011;52002;49.760;6.512;2023-05-19T11:24:55;11.90;;;2.00;;
65393;SDS011;52002;49.760;6.512;2023-05-19T11:27:31;7.80;;;1.50;;
65393;SDS011;52002;49.760;6.512;2023-05-19T11:32:31;4.80;;;1.40;;
65393;SDS011;52002;49.760;6.512;2023-05-19T11:34:57;4.60;;;1.50;;
65393;SDS011;52002;49.760;6.512;2023-05-19T11:37:24;3.80;;;1.30;;
65393;SDS011;52002;49.760;6.512;2023-05-19T11:39:50;5.20;;;1.70;;
65393;SDS011;52002;49.760;6.512;2023-05-19T11:42:17;4.20;;;1.60;;
65393;SDS011;52002;49.760;6.512;2023-05-19T11:44:43;9.20;;;2.10;;
65393;SDS011;52002;49.760;6.512;2023-05-19T11:47:15;10.80;;;2.20;;
65393;SDS011;52002;49.760;6.512;2023-05-19T11:49:44;8.50;;;1.80;;
65393;SDS011;52002;49.760;6.512;2023-05-19T11:52:12;7.40;;;1.50;;
65393;SDS011;52002;49.760;6.512;2023-05-19T11:54:38;6.20;;;1.70;;
65393;SDS011;52002;49.760;6.512;2023-05-19T11:57:07;7.10;;;1.50;;
65393;SDS011;52002;49.760;6.512;2023-05-19T11:59:34;7.70;;;1.90;;
65393;SDS011;52002;49.760;6.512;2023-05-19T12:02:17;6.00;;;1.40;;
65393;SDS011;52002;49.760;6.512;2023-05-19T12:04:43;5.40;;;1.40;;
65393;SDS011;52002;49.760;6.512;2023-05-19T12:07:13;5.40;;;1.50;;
65393;SDS011;52002;49.760;6.512;2023-05-19T12:09:44;3.70;;;1.40;;
65393;SDS011;52002;49.760;6.512;2023-05-19T12:12:17;7.80;;;1.70;;
65393;SDS011;52002;49.760;6.512;2023-05-19T12:14:47;6.60;;;1.60;;
65393;SDS011;52002;49.760;6.512;2023-05-19T12:17:15;4.70;;;1.50;;
65393;SDS011;52002;49.760;6.512;2023-05-19T12:19:43;6.00;;;1.50;;
65393;SDS011;52002;49.760;6.512;2023-05-19T12:22:10;3.90;;;1.80;;
65393;SDS011;52002;49.760;6.512;2023-05-19T12:24:37;5.80;;;1.50;;
65393;SDS011;52002;49.760;6.512;2023-05-19T12:27:16;4.10;;;1.80;;
65393;SDS011;52002;49.760;6.512;2023-05-19T12:29:50;4.50;;;1.50;;
65393;SDS011;52002;49.760;6.512;2023-05-19T12:32:16;10.20;;;1.60;;
65393;SDS011;52002;49.760;6.512;2023-05-19T12:34:43;6.30;;;1.60;;
65393;SDS011;52002;49.760;6.512;2023-05-19T12:37:09;4.80;;;1.70;;
65393;SDS011;52002;49.760;6.512;2023-05-19T12:39:35;6.00;;;1.70;;
65393;SDS011;52002;49.760;6.512;2023-05-19T12:42:06;12.90;;;1.70;;
65393;SDS011;52002;49.760;6.512;2023-05-19T12:44:36;4.30;;;1.40;;
65393;SDS011;52002;49.760;6.512;2023-05-19T12:47:03;4.50;;;2.00;;
65393;SDS011;52002;49.760;6.512;2023-05-19T12:49:31;5.50;;;1.50;;
65393;SDS011;52002;49.760;6.512;2023-05-19T12:51:56;7.70;;;1.50;;
65393;SDS011;52002;49.760;6.512;2023-05-19T12:54:26;4.80;;;1.40;;
65393;SDS011;52002;49.760;6.512;2023-05-19T12:56:51;5.90;;;1.40;;
65393;SDS011;52002;49.760;6.512;2023-05-19T12:59:23;6.80;;;1.50;;
65393;SDS011;52002;49.760;6.512;2023-05-19T13:01:58;5.50;;;1.40;;
65393;SDS011;52002;49.760;6.512;2023-05-19T13:04:24;5.60;;;1.50;;
65393;SDS011;52002;49.760;6.512;2023-05-19T13:06:51;4.40;;;1.50;;
65393;SDS011;52002;49.760;6.512;2023-05-19T13:09:18;6.60;;;1.70;;
65393;SDS011;52002;49.760;6.512;2023-05-19T13:11:45;3.30;;;1.40;;
65393;SDS011;52002;49.760;6.512;2023-05-19T13:14:15;5.40;;;1.40;;
65393;SDS011;52002;49.760;6.512;2023-05-19T13:16:44;6.90;;;1.50;;
65393;SDS011;52002;49.760;6.512;2023-05-19T13:19:11;9.20;;;1.50;;
65393;SDS011;52002;49.760;6.512;2023-05-19T13:21:42;3.40;;;1.30;;
65393;SDS011;52002;49.760;6.512;2023-05-19T13:24:07;4.40;;;1.60;;
65393;SDS011;52002;49.760;6.512;2023-05-19T13:26:33;3.30;;;1.70;;
65393;SDS011;52002;49.760;6.512;2023-05-19T13:28:59;6.80;;;1.60;;
65393;SDS011;52002;49.760;6.512;2023-05-19T13:31:25;5.80;;;1.50;;
65393;SDS011;52002;49.760;6.512;2023-05-19T13:33:50;6.10;;;1.70;;
65393;SDS011;52002;49.760;6.512;2023-05-19T13:36:15;8.10;;;1.70;;
65393;SDS011;52002;49.760;6.512;2023-05-19T13:38:41;6.60;;;1.60;;
65393;SDS011;52002;49.760;6.512;2023-05-19T13:41:06;3.40;;;1.30;;
65393;SDS011;52002;49.760;6.512;2023-05-19T13:43:32;6.80;;;1.50;;
65393;SDS011;52002;49.760;6.512;2023-05-19T13:45:57;7.30;;;1.80;;
65393;SDS011;52002;49.760;6.512;2023-05-19T13:48:22;7.30;;;1.70;;
65393;SDS011;52002;49.760;6.512;2023-05-19T13:50:48;6.10;;;1.80;;
65393;SDS011;52002;49.760;6.512;2023-05-19T13:53:14;6.60;;;1.60;;
65393;SDS011;52002;49.760;6.512;2023-05-19T13:55:40;4.00;;;1.30;;
65393;SDS011;52002;49.760;6.512;2023-05-19T13:58:05;3.90;;;1.40;;
65393;SDS011;52002;49.760;6.512;2023-05-19T14:00:31;6.40;;;1.60;;
65393;SDS011;52002;49.760;6.512;2023-05-19T14:02:57;3.50;;;1.30;;
65393;SDS011;52002;49.760;6.512;2023-05-19T14:05:23;7.20;;;1.60;;
65393;SDS011;52002;49.760;6.512;2023-05-19T14:07:48;8.80;;;1.50;;
65393;SDS011;52002;49.760;6.512;2023-05-19T14:10:13;6.20;;;1.60;;
65393;SDS011;52002;49.760;6.512;2023-05-19T14:12:39;9.70;;;1.70;;
65393;SDS011;52002;49.760;6.512;2023-05-19T14:15:04;6.10;;;1.40;;
65393;SDS011;52002;49.760;6.512;2023-05-19T14:17:30;4.10;;;1.40;;
65393;SDS011;52002;49.760;6.512;2023-05-19T14:19:56;9.30;;;1.80;;
65393;SDS011;52002;49.760;6.512;2023-05-19T14:22:22;3.20;;;1.10;;
65393;SDS011;52002;49.760;6.512;2023-05-19T14:24:47;7.80;;;1.50;;
65393;SDS011;52002;49.760;6.512;2023-05-19T14:27:12;6.10;;;1.40;;
65393;SDS011;52002;49.760;6.512;2023-05-19T14:29:38;7.40;;;1.50;;
65393;SDS011;52002;49.760;6.512;2023-05-19T14:32:03;4.90;;;1.40;;
65393;SDS011;52002;49.760;6.512;2023-05-19T14:34:29;4.40;;;1.30;;
65393;SDS011;52002;49.760;6.512;2023-05-19T14:36:55;2.70;;;1.40;;
65393;SDS011;52002;49.760;6.512;2023-05-19T14:39:20;2.30;;;1.50;;
65393;SDS011;52002;49.760;6.512;2023-05-19T14:41:45;4.80;;;1.70;;
65393;SDS011;52002;49.760;6.512;2023-05-19T14:44:13;3.50;;;1.40;;
65393;SDS011;52002;49.760;6.512;2023-05-19T14:46:38;4.90;;;1.30;;
65393;SDS011;52002;49.760;6.512;2023-05-19T14:49:04;3.90;;;1.40;;
65393;SDS011;52002;49.760;6.512;2023-05-19T14:51:30;4.00;;;1.50;;
65393;SDS011;52002;49.760;6.512;2023-05-19T14:53:56;3.60;;;1.50;;
65393;SDS011;52002;49.760;6.512;2023-05-19T14:56:21;3.90;;;1.40;;
65393;SDS011;52002;49.760;6.512;2023-05-19T14:58:47;8.80;;;1.50;;
65393;SDS011;52002;49.760;6.512;2023-05-19T15:01:12;4.30;;;1.30;;
65393;SDS011;52002;49.760;6.512;2023-05-19T15:03:37;4.40;;;1.40;;
65393;SDS011;52002;49.760;6.512;2023-05-19T15:06:06;4.10;;;1.30;;
65393;SDS011;52002;49.760;6.512;2023-05-19T15:08:33;9.30;;;1.40;;
65393;SDS011;52002;49.760;6.512;2023-05-19T15:10:58;4.90;;;1.40;;
65393;SDS011;52002;49.760;6.512;2023-05-19T15:13:23;4.70;;;1.20;;
65393;SDS011;52002;49.760;6.512;2023-05-19T15:15:52;10.60;;;1.80;;